Time;durP1;ratioP1;P1;durP2;ratioP2;P2;SDS_P1;SDS_P2;PMS_P1;PMS_P2;Temp;Humidity;BMP_temperature;BMP_pressure;BME280_temperature;BME280_humidity;BME280_pressure;Samples;Min_cycle;Max_cycle;Signal;HPM_P1;HPM_P2
2022/05/24 00:00:06;;;;;;;14.93;11.45;;;;;;;14.62;80.48;98243.28;5005576;28;20624;-63
2022/05/24 00:02:31;;;;;;;13.13;11.70;;;;;;;14.65;80.37;98235.91;5005084;28;20109;-63
2022/05/24 00:04:56;;;;;;;11.60;10.15;;;;;;;14.68;81.09;98219.72;5005490;28;20062;-62
2022/05/24 00:07:22;;;;;;;14.68;11.68;;;;;;;14.70;80.60;98228.38;5004848;28;20041;-65
2022/05/24 00:09:47;;;;;;;13.38;11.98;;;;;;;14.71;80.39;98219.44;5006235;28;20049;-62
2022/05/24 00:12:13;;;;;;;13.95;11.65;;;;;;;14.71;80.77;98221.25;5005598;28;20520;-63
2022/05/24 00:17:23;;;;;;;12.57;10.98;;;;;;;14.72;79.86;98218.47;5005420;28;20516;-64
2022/05/24 00:19:48;;;;;;;13.05;11.73;;;;;;;14.74;80.06;98232.44;5005793;28;20034;-63
2022/05/24 00:22:14;;;;;;;13.27;10.27;;;;;;;14.71;79.49;98230.03;5005889;28;20420;-64
2022/05/24 00:24:39;;;;;;;11.40;10.07;;;;;;;14.72;79.49;98234.38;5006183;28;20038;-61
2022/05/24 00:27:05;;;;;;;10.85;9.60;;;;;;;14.74;78.98;98235.09;5005014;28;20525;-63
2022/05/24 00:29:30;;;;;;;12.23;9.95;;;;;;;14.74;78.79;98229.78;5006879;28;20410;-62
2022/05/24 00:31:55;;;;;;;11.15;10.00;;;;;;;14.78;78.92;98230.31;5005904;28;20113;-61
2022/05/24 00:34:21;;;;;;;12.80;10.80;;;;;;;14.80;78.46;98238.97;5005764;28;20046;-59
2022/05/24 00:36:46;;;;;;;13.45;9.95;;;;;;;14.78;78.06;98228.50;5006473;28;20122;-62
2022/05/24 00:39:11;;;;;;;12.13;10.82;;;;;;;14.78;77.61;98230.31;5009767;28;20061;-62
2022/05/24 00:42:01;;;;;;;12.75;10.63;;;;;;;14.71;76.56;98229.22;5010837;28;20047;-62
2022/05/24 00:44:32;;;;;;;12.68;10.48;;;;;;;14.71;76.16;98232.69;5008823;28;20046;-60
2022/05/24 00:47:02;;;;;;;12.85;9.25;;;;;;;14.69;75.85;98224.03;5008105;28;20061;-63
2022/05/24 00:49:31;;;;;;;14.32;10.23;;;;;;;14.68;75.47;98230.31;5009183;28;20038;-60
2022/05/24 00:52:14;;;;;;;12.63;9.55;;;;;;;14.66;75.20;98236.75;5008799;28;20026;-63
2022/05/24 00:54:42;;;;;;;13.45;10.00;;;;;;;14.60;75.24;98240.81;5008642;28;20040;-63
2022/05/24 00:57:17;;;;;;;16.20;9.13;;;;;;;14.59;75.71;98252.38;5007920;28;20060;-61
2022/05/24 00:59:48;;;;;;;;;;;;;;;14.51;75.62;98253.03;5009383;28;20041;-60
2022/05/24 01:02:13;;;;;;;12.05;9.35;;;;;;;14.48;75.69;98255.13;5024346;28;19916;-63
2022/05/24 01:04:39;;;;;;;10.40;8.27;;;;;;;14.44;74.52;98261.69;5008780;28;20096;-62
2022/05/24 01:07:04;;;;;;;14.30;8.57;;;;;;;14.43;74.66;98255.53;5007663;28;20042;-64
2022/05/24 01:09:40;;;;;;;14.32;8.57;;;;;;;14.43;74.08;98257.38;5007769;28;20097;-65
2022/05/24 01:12:17;;;;;;;12.23;8.52;;;;;;;14.42;74.12;98255.66;5008362;28;20034;-59
2022/05/24 01:14:43;;;;;;;11.60;7.88;;;;;;;14.41;73.56;98252.19;5008301;28;20045;-63
2022/05/24 01:17:08;;;;;;;10.98;7.63;;;;;;;14.37;72.96;98254.28;5007883;28;20104;-63
2022/05/24 01:19:41;;;;;;;13.45;6.75;;;;;;;14.26;72.71;98243.78;5008244;28;20034;-62
2022/05/24 01:22:44;;;;;;;13.20;8.27;;;;;;;14.25;73.29;98247.44;5008055;28;20066;-67
2022/05/24 01:25:22;;;;;;;9.23;6.50;;;;;;;14.25;73.91;98244.78;5007590;28;20038;-62
2022/05/24 01:27:48;;;;;;;12.70;7.45;;;;;;;14.24;73.92;98253.69;5007409;28;20038;-62
2022/05/24 01:30:13;;;;;;;9.68;6.45;;;;;;;14.27;74.27;98248.09;5008373;28;20753;-63
2022/05/24 01:38:12;;;;;;;14.98;6.20;;;;;;;14.27;73.45;98265.84;5007044;28;20662;-63
2022/05/24 01:40:37;;;;;;;10.07;6.55;;;;;;;14.20;73.67;98268.22;5006804;28;20037;-64
2022/05/24 01:43:03;;;;;;;12.38;7.60;;;;;;;14.19;74.49;98261.22;5007462;28;20060;-65
2022/05/24 01:45:34;;;;;;;13.43;7.07;;;;;;;14.15;74.73;98265.97;5007557;28;20048;-64
2022/05/24 01:48:05;;;;;;;10.60;6.25;;;;;;;14.11;74.08;98269.84;5006558;28;20095;-63
2022/05/24 01:50:33;;;;;;;9.50;6.88;;;;;;;14.03;73.96;98268.84;5006964;28;20042;-62
2022/05/24 01:53:05;;;;;;;9.77;6.25;;;;;;;14.00;74.14;98263.81;5007235;28;20131;-64
2022/05/24 01:55:37;;;;;;;12.88;6.57;;;;;;;14.00;74.71;98271.75;5007607;28;20053;-63
2022/05/24 01:58:07;;;;;;;10.25;5.85;;;;;;;13.98;74.40;98268.41;5006879;28;20037;-64
2022/05/24 02:00:32;;;;;;;11.32;8.23;;;;;;;13.94;74.48;98276.63;5005574;28;20038;-63
2022/05/24 02:02:57;;;;;;;11.82;6.45;;;;;;;13.93;74.53;98267.00;5007255;28;20033;-62
2022/05/24 02:05:40;;;;;;;8.32;5.68;;;;;;;13.95;75.61;98266.84;5007226;28;20099;-60
2022/05/24 02:08:09;;;;;;;12.65;7.25;;;;;;;13.95;75.74;98250.97;5006169;28;20087;-62
2022/05/24 02:10:43;;;;;;;17.05;7.15;;;;;;;13.94;75.74;98259.91;5007198;28;20037;-61
2022/05/24 02:13:10;;;;;;;10.07;7.13;;;;;;;13.94;75.50;98259.91;5007308;28;20037;-63
2022/05/24 02:15:40;;;;;;;8.80;7.05;;;;;;;13.96;75.75;98252.66;5005218;28;20041;-62
2022/05/24 02:18:13;;;;;;;21.00;9.18;;;;;;;13.93;75.78;98245.81;5005017;28;20061;-61
2022/05/24 02:20:45;;;;;;;15.35;8.60;;;;;;;13.90;75.83;98243.41;5007174;28;20644;-61
2022/05/24 02:23:13;;;;;;;9.90;7.35;;;;;;;13.89;76.04;98241.75;5007073;28;20095;-63
2022/05/24 02:25:43;;;;;;;12.90;7.10;;;;;;;13.88;75.23;98240.09;5006556;28;20108;-63
2022/05/24 02:28:10;;;;;;;13.25;7.10;;;;;;;13.87;75.00;98246.34;5006925;28;20413;-63
2022/05/24 02:30:39;;;;;;;14.48;7.50;;;;;;;13.84;75.20;98245.78;5007733;28;20038;-63
2022/05/24 02:33:05;;;;;;;10.95;7.35;;;;;;;13.84;74.56;98257.22;5006817;28;20049;-63
2022/05/24 02:35:30;;;;;;;12.20;8.02;;;;;;;13.83;74.43;98255.53;5006145;28;20038;-62
2022/05/24 02:37:55;;;;;;;10.63;5.63;;;;;;;13.83;75.02;98254.69;5006113;28;20037;-64
2022/05/24 02:43:06;;;;;;;9.00;6.35;;;;;;;13.74;74.09;98245.75;5006094;28;20057;-64
2022/05/24 02:45:31;;;;;;;9.82;5.35;;;;;;;13.66;74.38;98242.91;5004123;28;20135;-63
2022/05/24 02:47:57;;;;;;;8.60;5.82;;;;;;;13.64;74.25;98239.56;5007480;28;20486;-63
2022/05/24 02:50:24;;;;;;;11.65;5.15;;;;;;;13.63;73.29;98236.06;5006599;28;20079;-63
2022/05/24 02:52:49;;;;;;;8.63;5.28;;;;;;;13.63;73.64;98245.81;5007656;28;20050;-62
2022/05/24 02:55:15;;;;;;;12.63;6.28;;;;;;;13.62;73.69;98250.28;5006161;28;20685;-63
2022/05/24 02:57:40;;;;;;;9.55;4.90;;;;;;;13.67;74.34;98241.94;5006370;28;20500;-64
2022/05/24 03:00:11;;;;;;;10.32;4.97;;;;;;;13.67;73.37;98242.78;5004560;28;20102;-63
2022/05/24 03:02:36;;;;;;;12.68;5.07;;;;;;;13.64;72.98;98244.88;5006941;28;20054;-63
2022/05/24 03:05:02;;;;;;;9.18;4.90;;;;;;;13.60;73.00;98241.63;5006010;28;20133;-62
2022/05/24 03:10:11;;;;;;;9.80;5.13;;;;;;;13.49;72.75;98239.09;5006185;28;20096;-62
2022/05/24 03:15:21;;;;;;;6.85;4.00;;;;;;;13.46;72.99;98226.97;5006058;28;20413;-63
2022/05/24 03:17:46;;;;;;;8.60;4.40;;;;;;;13.47;73.07;98231.28;5005358;28;20041;-62
2022/05/24 03:20:11;;;;;;;11.00;4.60;;;;;;;13.47;73.58;98246.31;5005566;28;20030;-63
2022/05/24 03:22:37;;;;;;;7.82;4.18;;;;;;;13.41;73.10;98247.66;5005672;28;20087;-63
2022/05/24 03:25:02;;;;;;;9.43;4.65;;;;;;;13.40;73.80;98246.00;5005477;28;20481;-61
2022/05/24 03:27:28;;;;;;;6.38;4.00;;;;;;;13.42;73.16;98249.34;5004780;28;20048;-62
2022/05/24 03:29:54;;;;;;;11.15;4.22;;;;;;;13.41;73.67;98241.53;5005326;28;20042;-62
2022/05/24 03:32:19;;;;;;;11.18;4.00;;;;;;;13.41;73.81;98255.59;5005959;28;20447;-63
2022/05/24 03:34:45;;;;;;;10.10;4.38;;;;;;;13.41;73.57;98257.41;5005729;28;20529;-63
2022/05/24 03:37:10;;;;;;;8.43;4.35;;;;;;;13.39;73.72;98252.28;5003457;28;20473;-63
2022/05/24 03:39:35;;;;;;;12.43;4.57;;;;;;;13.41;73.67;98255.59;5005668;28;20042;-63
2022/05/24 03:42:02;;;;;;;11.07;4.53;;;;;;;13.41;73.79;98270.66;5005291;28;20116;-63
2022/05/24 03:44:28;;;;;;;11.75;5.38;;;;;;;13.36;73.51;98271.03;5005428;28;20033;-63
2022/05/24 03:46:54;;;;;;;13.23;5.25;;;;;;;13.32;74.03;98267.84;5005433;28;20037;-61
2022/05/24 03:49:20;;;;;;;10.88;4.35;;;;;;;13.33;73.74;98268.66;5005835;28;20046;-62
2022/05/24 03:51:45;;;;;;;10.50;4.28;;;;;;;13.31;73.20;98268.81;5005313;28;20113;-63
2022/05/24 03:54:12;;;;;;;15.20;5.15;;;;;;;13.31;73.79;98268.81;5004873;28;20113;-66
2022/05/24 03:56:38;;;;;;;13.13;4.97;;;;;;;13.31;73.81;98271.47;5003953;28;20038;-63
2022/05/24 03:59:04;;;;;;;8.70;4.30;;;;;;;13.33;74.38;98279.25;5004864;28;20048;-63
2022/05/24 04:01:29;;;;;;;10.13;3.75;;;;;;;13.35;74.50;98279.13;5005137;28;20042;-63
2022/05/24 04:03:55;;;;;;;9.65;4.32;;;;;;;13.32;74.91;98290.81;5004873;28;20041;-62
2022/05/24 04:06:21;;;;;;;10.55;4.35;;;;;;;13.29;75.59;98281.34;5004816;28;20034;-62
2022/05/24 04:08:46;;;;;;;10.43;4.47;;;;;;;13.26;76.27;98276.25;5004773;28;20409;-63
2022/05/24 04:11:13;;;;;;;10.48;4.03;;;;;;;13.19;75.48;98285.69;5007223;28;20034;-63
2022/05/24 04:13:41;;;;;;;11.52;4.13;;;;;;;13.16;75.63;98278.00;5009037;28;20034;-63
2022/05/24 04:16:07;;;;;;;8.57;3.97;;;;;;;13.13;76.27;98291.47;5008460;28;20104;-60
2022/05/24 04:18:33;;;;;;;8.07;4.25;;;;;;;13.04;75.50;98295.75;5009143;28;20116;-64
2022/05/24 04:20:59;;;;;;;15.65;3.92;;;;;;;13.00;76.23;98301.44;5009107;28;20509;-63
2022/05/24 04:23:25;;;;;;;8.55;3.45;;;;;;;12.90;76.17;98301.34;5009172;28;20076;-64
2022/05/24 04:25:52;;;;;;;10.88;4.15;;;;;;;12.86;77.62;98315.78;5006864;28;20034;-62
2022/05/24 04:28:20;;;;;;;14.77;4.28;;;;;;;12.80;77.34;98321.59;5008304;28;21595;-63
2022/05/24 04:30:51;;;;;;;8.15;3.50;;;;;;;12.73;77.51;98338.91;5008734;28;20026;-65
2022/05/24 04:33:17;;;;;;;5.20;3.13;;;;;;;12.66;77.68;98349.97;5008884;28;20037;-64
2022/05/24 04:35:43;;;;;;;8.13;2.95;;;;;;;12.55;76.93;98344.72;5008875;28;20116;-62
2022/05/24 04:38:09;;;;;;;11.32;3.13;;;;;;;12.42;77.32;98351.94;5007991;28;20506;-61
2022/05/24 04:43:18;;;;;;;4.32;1.75;;;;;;;12.13;76.89;98368.28;5008143;28;20081;-59
2022/05/24 04:45:44;;;;;;;6.10;2.25;;;;;;;12.03;76.14;98364.69;5008443;28;20478;-62
2022/05/24 04:48:09;;;;;;;4.07;2.03;;;;;;;11.96;76.72;98387.25;5007707;28;20083;-63
2022/05/24 04:50:37;;;;;;;7.75;2.00;;;;;;;11.84;76.81;98399.59;5008445;28;20715;-63
2022/05/24 04:53:02;;;;;;;4.18;2.08;;;;;;;11.82;77.79;98393.59;5008389;28;20029;-63
2022/05/24 04:55:28;;;;;;;5.03;1.67;;;;;;;11.79;77.73;98399.94;5008321;28;20406;-63
2022/05/24 04:57:54;;;;;;;5.32;2.33;;;;;;;11.75;78.34;98400.28;5007675;28;20068;-62
2022/05/24 05:00:20;;;;;;;6.40;2.38;;;;;;;11.71;78.27;98396.19;5006947;28;20113;-63
2022/05/24 05:02:46;;;;;;;7.47;3.05;;;;;;;11.63;78.94;98396.78;5007342;28;20444;-64
2022/05/24 05:05:13;;;;;;;4.35;2.42;;;;;;;11.60;78.69;98394.38;5007632;28;20038;-63
2022/05/24 05:07:38;;;;;;;5.18;2.22;;;;;;;11.55;79.62;98400.00;5006916;28;20042;-65
2022/05/24 05:10:04;;;;;;;8.65;2.10;;;;;;;11.50;79.81;98406.59;5007924;28;20041;-63
2022/05/24 05:12:30;;;;;;;3.40;2.15;;;;;;;11.45;79.85;98409.56;5008273;28;20041;-62
2022/05/24 05:14:55;;;;;;;4.03;2.40;;;;;;;11.44;79.64;98397.31;5007906;28;20089;-64
2022/05/24 05:17:20;;;;;;;4.90;2.10;;;;;;;11.45;80.68;98398.19;5005678;28;20048;-63
2022/05/24 05:19:46;;;;;;;3.67;1.70;;;;;;;11.44;80.29;98418.44;5007926;28;20504;-62
2022/05/24 05:22:12;;;;;;;4.28;1.90;;;;;;;11.41;80.36;98420.47;5006778;28;20029;-65
2022/05/24 05:24:38;;;;;;;6.10;2.30;;;;;;;11.39;80.09;98412.66;5007662;28;20703;-64
2022/05/24 05:27:04;;;;;;;6.78;2.35;;;;;;;11.42;80.83;98419.50;5007343;28;20030;-64
2022/05/24 05:32:22;;;;;;;4.45;2.20;;;;;;;11.41;79.79;98417.84;5007155;28;20076;-64
2022/05/24 05:34:48;;;;;;;4.00;2.47;;;;;;;11.34;80.51;98413.00;5006996;28;20049;-61
2022/05/24 05:37:15;;;;;;;9.05;3.20;;;;;;;11.41;82.19;98417.84;5006225;28;20399;-62
2022/05/24 05:39:41;;;;;;;6.80;2.65;;;;;;;11.46;81.25;98424.44;5007806;28;20034;-63
2022/05/24 05:42:06;;;;;;;6.00;3.20;;;;;;;11.46;80.47;98416.53;5007183;28;20037;-63
2022/05/24 05:44:32;;;;;;;5.65;2.03;;;;;;;11.48;81.47;98425.16;5005799;28;21157;-62
2022/05/24 05:46:57;;;;;;;7.38;2.60;;;;;;;11.45;80.58;98417.50;5005368;28;20042;-65
2022/05/24 05:49:22;;;;;;;5.00;2.05;;;;;;;11.46;80.49;98413.88;5007317;28;20042;-62
2022/05/24 05:51:48;;;;;;;6.78;2.55;;;;;;;11.46;80.84;98416.53;5006239;28;20083;-63
2022/05/24 05:54:13;;;;;;;6.25;2.45;;;;;;;11.50;81.45;98417.16;5006911;28;20054;-64
2022/05/24 05:56:40;;;;;;;9.68;3.08;;;;;;;11.54;81.52;98416.81;5006555;28;20061;-62
2022/05/24 05:59:06;;;;;;;6.90;2.80;;;;;;;11.61;81.72;98422.44;5006612;28;20426;-62
2022/05/24 06:01:32;;;;;;;10.43;3.55;;;;;;;11.66;81.25;98430.03;5006907;28;20033;-59
2022/05/24 06:03:59;;;;;;;8.05;3.20;;;;;;;11.64;80.14;98432.78;5006664;28;20042;-63
2022/05/24 06:06:28;;;;;;;6.70;3.08;;;;;;;11.64;79.93;98435.44;5005943;28;20034;-60
2022/05/24 06:08:54;;;;;;;6.70;2.83;;;;;;;11.73;80.25;98447.09;5007055;28;20092;-64
2022/05/24 06:11:19;;;;;;;9.77;3.00;;;;;;;11.87;80.88;98454.00;5005475;28;20046;-67
2022/05/24 06:13:46;;;;;;;8.52;3.35;;;;;;;11.99;80.96;98456.56;5005849;28;20034;-63
2022/05/24 06:16:13;;;;;;;13.95;4.38;;;;;;;12.11;79.21;98453.91;5005898;28;20429;-65
2022/05/24 06:18:39;;;;;;;8.55;3.13;;;;;;;12.15;78.83;98453.56;5006100;28;20092;-62
2022/05/24 06:21:04;;;;;;;6.72;2.83;;;;;;;12.25;79.10;98464.25;5006946;28;20050;-62
2022/05/24 06:23:30;;;;;;;5.40;2.50;;;;;;;12.31;78.54;98473.53;5006750;28;20069;-62
2022/05/24 06:25:55;;;;;;;7.85;2.55;;;;;;;12.33;78.05;98466.31;5005463;28;20104;-61
2022/05/24 06:28:21;;;;;;;6.63;2.58;;;;;;;12.47;77.62;98458.16;5005767;28;20133;-63
2022/05/24 06:30:46;;;;;;;9.98;3.00;;;;;;;12.62;78.12;98467.50;5006209;28;20117;-62
2022/05/24 06:33:12;;;;;;;4.85;2.38;;;;;;;12.62;77.01;98475.44;5006846;28;20053;-63
2022/05/24 06:35:38;;;;;;;8.55;3.53;;;;;;;12.58;76.40;98484.59;5005526;28;20049;-63
2022/05/24 06:38:03;;;;;;;8.05;3.15;;;;;;;12.59;77.62;98491.56;5005833;28;20558;-63
2022/05/24 06:40:29;;;;;;;8.40;2.60;;;;;;;12.59;76.18;98502.13;5006062;28;20048;-63
2022/05/24 06:42:54;;;;;;;5.13;2.65;;;;;;;12.62;75.98;98501.88;5006411;28;20034;-62
2022/05/24 06:45:20;;;;;;;6.22;2.85;;;;;;;12.67;75.53;98498.88;5006198;28;20134;-64
2022/05/24 06:47:45;;;;;;;8.88;2.65;;;;;;;12.70;76.12;98498.66;5004588;28;20088;-60
2022/05/24 06:50:13;;;;;;;8.32;2.47;;;;;;;12.74;76.33;98493.97;5006104;28;20034;-62
2022/05/24 06:52:38;;;;;;;8.10;3.17;;;;;;;12.74;74.57;98502.72;5006217;28;20690;-63
2022/05/24 06:55:05;;;;;;;5.53;2.85;;;;;;;12.82;74.03;98507.41;5006376;28;20129;-63
2022/05/24 06:57:31;;;;;;;4.20;2.60;;;;;;;12.95;74.37;98512.59;5005442;28;20038;-60
2022/05/24 07:02:40;;;;;;;6.38;2.70;;;;;;;13.05;74.13;98509.09;5005346;28;20045;-62
2022/05/24 07:05:10;;;;;;;8.15;2.92;;;;;;;13.12;72.97;98514.72;5005520;28;20034;-64
2022/05/24 07:07:36;;;;;;;6.55;2.70;;;;;;;13.08;73.40;98513.28;5005845;28;20042;-63
2022/05/24 07:10:04;;;;;;;5.60;2.60;;;;;;;13.18;72.69;98500.16;5005796;28;20041;-62
2022/05/24 07:12:29;;;;;;;8.27;2.67;;;;;;;13.32;73.08;98508.69;5007057;28;20687;-64
2022/05/24 07:14:57;;;;;;;5.43;2.20;;;;;;;13.49;72.37;98502.03;5006680;28;20141;-64
2022/05/24 07:17:22;;;;;;;5.10;2.33;;;;;;;14.07;72.53;98493.69;5005089;28;20084;-56
2022/05/24 07:19:48;;;;;;;20.52;3.90;;;;;;;14.71;68.05;98505.91;5005088;28;20049;-58
2022/05/24 07:22:14;;;;;;;4.00;2.35;;;;;;;15.07;66.24;98509.00;5002378;28;20053;-56
2022/05/24 07:24:40;;;;;;;2.97;1.95;;;;;;;15.39;65.55;98499.97;5004521;28;20038;-57
2022/05/24 07:27:12;;;;;;;3.67;1.50;;;;;;;15.66;62.89;98502.78;5004013;28;20553;-62
2022/05/24 07:29:39;;;;;;;3.33;2.05;;;;;;;16.02;62.14;98504.91;5005695;28;20687;-57
2022/05/24 07:32:05;;;;;;;3.95;1.92;;;;;;;16.45;61.27;98508.91;5005764;28;20041;-60
2022/05/24 07:34:31;;;;;;;5.93;2.33;;;;;;;16.81;58.98;98520.59;5004436;28;20046;-60
2022/05/24 07:36:57;;;;;;;6.82;2.70;;;;;;;16.89;60.54;98512.69;5001973;28;20044;-57
2022/05/24 07:39:23;;;;;;;5.38;2.58;;;;;;;16.81;59.45;98523.25;5001218;28;20046;-58
2022/05/24 07:47:17;;;;;;;6.78;2.00;;;;;;;16.63;57.32;98524.94;5004154;28;20049;-57
2022/05/24 07:49:42;;;;;;;8.18;2.35;;;;;;;16.58;57.32;98525.38;5005117;28;20042;-58
2022/05/24 07:52:08;;;;;;;3.83;1.73;;;;;;;16.57;56.73;98531.69;5005810;28;20030;-68
2022/05/24 07:54:34;;;;;;;4.55;2.05;;;;;;;16.07;57.53;98540.75;5005258;28;20038;-68
2022/05/24 07:57:00;;;;;;;5.63;1.85;;;;;;;15.79;59.36;98542.41;5004385;28;20489;-68
2022/05/24 07:59:26;;;;;;;4.88;1.75;;;;;;;15.49;59.43;98551.28;5005193;28;20045;-69
2022/05/24 08:01:52;;;;;;;5.40;2.40;;;;;;;15.21;59.20;98560.84;5005520;28;20042;-69
2022/05/24 08:04:18;;;;;;;6.60;2.28;;;;;;;15.07;59.77;98561.25;5005180;28;20057;-68
2022/05/24 08:06:44;;;;;;;5.03;1.92;;;;;;;15.41;58.87;98561.78;5004468;28;20132;-69
2022/05/24 08:09:09;;;;;;;4.50;1.98;;;;;;;15.72;57.54;98556.38;5004600;28;20128;-68
2022/05/24 08:11:34;;;;;;;2.70;1.52;;;;;;;15.91;57.18;98564.38;5004745;28;20038;-69
2022/05/24 08:14:02;;;;;;;4.18;1.73;;;;;;;15.83;57.62;98574.88;5003962;28;20457;-70
2022/05/24 08:16:28;;;;;;;3.17;1.70;;;;;;;15.85;57.96;98581.72;5004210;28;20489;-68
2022/05/24 08:18:53;;;;;;;5.85;1.92;;;;;;;15.84;58.10;98580.03;5002454;28;20038;-69
2022/05/24 08:21:19;;;;;;;4.55;1.73;;;;;;;15.77;58.65;98584.22;5005020;28;20111;-72
2022/05/24 08:23:44;;;;;;;3.30;1.75;;;;;;;15.91;56.72;98582.97;5004682;28;20835;-68
2022/05/24 08:26:10;;;;;;;4.60;1.85;;;;;;;15.78;57.35;98585.09;5004674;28;20061;-69
2022/05/24 08:28:35;;;;;;;4.05;1.98;;;;;;;15.65;57.37;98588.81;5004904;28;20092;-68
2022/05/24 08:31:01;;;;;;;2.50;1.55;;;;;;;15.45;57.75;98595.88;5002833;28;20041;-67
2022/05/24 08:33:28;;;;;;;2.50;1.27;;;;;;;15.40;57.40;98598.09;5005521;28;20037;-68
2022/05/24 08:35:54;;;;;;;3.42;1.48;;;;;;;15.39;58.31;98591.13;5004619;28;20099;-66
2022/05/24 08:38:21;;;;;;;5.00;1.60;;;;;;;15.29;58.06;98606.19;5002967;28;20033;-67
2022/05/24 08:40:48;;;;;;;14.48;2.15;;;;;;;15.20;57.71;98606.97;5001083;28;20048;-67
2022/05/24 08:43:19;;;;;;;6.60;2.13;;;;;;;15.08;58.35;98608.88;4999403;28;20049;-68
2022/05/24 08:48:46;;;;;;;4.22;2.17;;;;;;;14.98;59.00;98608.81;5002383;28;20081;-65
2022/05/24 08:51:18;;;;;;;8.45;2.22;;;;;;;15.07;59.41;98611.69;5004457;28;20030;-64
2022/05/24 08:53:46;;;;;;;7.93;1.80;;;;;;;15.07;59.13;98620.47;5004762;28;20045;-65
2022/05/24 08:56:24;;;;;;;4.07;1.63;;;;;;;15.07;58.75;98623.13;5003548;28;21027;-65
2022/05/24 08:58:54;;;;;;;2.78;1.63;;;;;;;15.14;58.71;98618.16;5006614;28;20042;-65
2022/05/24 09:01:32;;;;;;;5.05;1.67;;;;;;;15.38;58.66;98631.06;5005687;28;20049;-63
2022/05/24 09:03:58;;;;;;;3.30;1.85;;;;;;;15.39;56.50;98632.78;5007982;28;20045;-66
2022/05/24 09:06:40;;;;;;;5.00;1.85;;;;;;;15.28;56.69;98630.19;5007242;28;20053;-64
2022/05/24 09:09:11;;;;;;;3.22;1.40;;;;;;;15.20;56.95;98634.34;5007785;28;20120;-64
2022/05/24 09:11:50;;;;;;;5.13;2.05;;;;;;;15.35;56.55;98632.19;5004765;28;20044;-65
2022/05/24 09:14:39;;;;;;;3.78;1.92;;;;;;;16.39;54.30;98626.50;5007939;28;20053;-66
2022/05/24 09:17:30;;;;;;;6.28;2.10;;;;;;;16.71;52.64;98631.50;4987342;28;20049;-65
2022/05/24 09:19:56;;;;;;;4.90;1.50;;;;;;;17.01;51.82;98632.31;4988208;28;20038;-66
2022/05/24 09:22:21;;;;;;;3.90;1.55;;;;;;;17.04;52.48;98638.19;4988061;28;20506;-66
2022/05/24 09:24:56;;;;;;;3.35;2.88;;;;;;;17.17;51.28;98632.53;4988004;28;20042;-65
2022/05/24 09:27:53;;;;;;;3.63;2.10;;;;;;;16.97;51.50;98649.56;4987317;28;20042;-65
2022/05/24 09:30:31;;;;;;;5.30;1.80;;;;;;;16.67;53.24;98643.44;5001518;28;20042;-66
2022/05/24 09:33:18;;;;;;;4.70;2.15;;;;;;;16.37;54.61;98653.25;5007242;28;20082;-65
2022/05/24 09:35:44;;;;;;;9.07;2.47;;;;;;;16.16;55.23;98656.03;5007038;28;20096;-65
2022/05/24 09:38:16;;;;;;;5.40;1.67;;;;;;;15.98;56.69;98661.19;5006815;28;20033;-66
2022/05/24 09:40:58;;;;;;;3.88;1.67;;;;;;;15.77;58.09;98660.44;5007480;28;20084;-63
2022/05/24 09:43:33;;;;;;;2.63;2.03;;;;;;;16.19;57.52;98662.88;4994267;28;20401;-65
2022/05/24 09:46:23;;;;;;;16.70;3.70;;;;;;;17.69;52.31;98662.16;5002942;28;20528;-66
2022/05/24 09:48:59;;;;;;;5.50;2.47;;;;;;;18.62;50.61;98651.28;5005177;28;20045;-64
2022/05/24 09:51:39;;;;;;;4.70;2.00;;;;;;;18.79;48.42;98652.28;5006749;28;20089;-65
2022/05/24 09:54:13;;;;;;;5.55;1.70;;;;;;;18.00;49.90;98657.38;5006873;28;20045;-65
2022/05/24 09:56:39;;;;;;;7.88;2.78;;;;;;;18.50;49.60;98657.84;5003417;28;20065;-67
2022/05/24 09:59:18;;;;;;;4.68;2.53;;;;;;;18.95;47.79;98672.91;5007016;28;20036;-66
2022/05/24 10:01:43;;;;;;;4.78;2.53;;;;;;;20.04;45.07;98653.59;5007169;28;20044;-65
2022/05/24 10:04:25;;;;;;;4.15;2.28;;;;;;;21.25;43.04;98653.75;5006638;28;20041;-66
2022/05/24 10:07:00;;;;;;;3.25;1.80;;;;;;;21.91;41.83;98656.22;5006174;28;20473;-67
2022/05/24 10:09:32;;;;;;;;;;;;;;;21.94;40.71;98659.38;5003380;28;20061;-63
2022/05/24 10:12:15;;;;;;;5.47;1.85;;;;;;;20.69;42.17;98667.06;5006350;28;20547;-64
2022/05/24 10:14:46;;;;;;;4.65;1.70;;;;;;;20.39;42.90;98665.84;5006601;28;20041;-67
2022/05/24 10:17:17;;;;;;;3.75;2.78;;;;;;;20.50;43.31;98667.34;5005534;28;20037;-67
2022/05/24 10:20:06;;;;;;;3.03;1.70;;;;;;;20.16;44.22;98663.81;5006162;28;20050;-67
2022/05/24 10:23:07;;;;;;;3.28;1.73;;;;;;;19.28;44.46;98673.97;5004671;28;20044;-66
2022/05/24 10:25:55;;;;;;;3.28;1.83;;;;;;;18.35;50.21;98685.06;4970315;28;20043;-66
2022/05/24 10:28:45;;;;;;;8.90;2.88;;;;;;;17.73;52.09;98689.38;5007082;28;20077;-64
2022/05/24 10:31:25;;;;;;;1.92;1.58;;;;;;;17.48;52.92;98689.06;5008909;28;20430;-65
2022/05/24 10:39:53;;;;;;;1.92;1.52;;;;;;;18.95;46.20;98688.94;5006279;28;20041;-66
2022/05/24 10:42:31;;;;;;;2.42;1.98;;;;;;;20.21;43.27;98690.09;5003330;28;20048;-67
2022/05/24 10:45:04;;;;;;;2.78;1.80;;;;;;;20.89;41.82;98682.78;5002726;28;20508;-64
2022/05/24 10:47:52;;;;;;;2.25;1.40;;;;;;;21.66;40.58;98677.81;5002397;28;20042;-65
2022/05/24 10:50:43;;;;;;;2.75;1.60;;;;;;;22.00;38.71;98682.84;5035029;28;20054;-65
2022/05/24 10:53:15;;;;;;;3.30;1.65;;;;;;;22.14;39.54;98680.41;5005916;28;20026;-63
2022/05/24 10:55:57;;;;;;;6.78;2.20;;;;;;;21.97;39.04;98675.13;5006408;28;20029;-67
2022/05/24 10:58:24;;;;;;;1.95;1.35;;;;;;;21.49;39.54;98679.69;5005957;28;20038;-66
2022/05/24 11:00:54;;;;;;;3.95;2.15;;;;;;;21.06;41.17;98675.56;5005879;28;20699;-68
2022/05/24 11:03:35;;;;;;;23.58;3.88;;;;;;;20.57;42.58;98681.78;5004624;28;20100;-66
2022/05/24 11:06:21;;;;;;;8.05;2.92;;;;;;;19.99;43.21;98685.34;5005804;28;20552;-67
2022/05/24 11:08:56;;;;;;;2.90;1.77;;;;;;;19.49;44.90;98685.13;4996737;28;20160;-68
2022/05/24 11:11:25;;;;;;;3.08;1.80;;;;;;;19.25;45.86;98685.00;5003297;28;20058;-66
2022/05/24 11:14:32;;;;;;;4.30;2.10;;;;;;;18.94;46.14;98677.44;5000492;28;20085;-66
2022/05/24 11:16:58;;;;;;;3.78;1.60;;;;;;;18.84;46.96;98680.19;4984087;28;20089;-65
2022/05/24 11:19:39;;;;;;;2.90;1.70;;;;;;;19.03;45.95;98671.16;4985828;28;20784;-66
2022/05/24 11:22:23;;;;;;;7.50;2.22;;;;;;;19.03;46.20;98676.50;4985930;28;20125;-65
2022/05/24 11:25:16;;;;;;;2.38;1.30;;;;;;;19.01;46.82;98675.81;5004640;28;20053;-66
2022/05/24 11:27:46;;;;;;;3.92;1.50;;;;;;;19.36;44.91;98666.00;4987420;28;20116;-59
2022/05/24 11:30:30;;;;;;;5.63;1.88;;;;;;;19.61;44.35;98669.63;4985500;28;20080;-57
2022/05/24 11:33:31;;;;;;;1.73;1.35;;;;;;;19.88;43.55;98675.78;4985821;28;20042;-55
2022/05/24 11:36:21;;;;;;;5.03;1.70;;;;;;;20.12;42.25;98673.16;4983752;28;20664;-54
2022/05/24 11:38:49;;;;;;;2.55;1.50;;;;;;;20.10;42.05;98677.84;4985179;28;20121;-52
2022/05/24 11:41:27;;;;;;;2.70;1.55;;;;;;;19.97;41.38;98672.13;4984378;28;20125;-68
2022/05/24 11:43:52;;;;;;;3.05;1.60;;;;;;;19.52;42.71;98681.28;4985660;28;20038;-67
2022/05/24 11:46:33;;;;;;;2.42;1.65;;;;;;;19.45;42.12;98686.44;4984993;28;20109;-66
2022/05/24 11:49:00;;;;;;;4.32;1.70;;;;;;;19.22;42.92;98693.28;4985079;28;20045;-67
2022/05/24 11:51:28;;;;;;;2.83;1.52;;;;;;;19.22;43.54;98695.97;4995199;28;20037;-67
2022/05/24 11:53:53;;;;;;;4.28;1.83;;;;;;;19.15;43.18;98692.25;5004927;28;20095;-68
2022/05/24 11:56:21;;;;;;;3.95;1.60;;;;;;;19.14;43.17;98682.56;5003883;28;20045;-66
2022/05/24 11:58:49;;;;;;;2.78;1.58;;;;;;;18.69;42.67;98696.91;5004462;28;20461;-68
2022/05/24 12:01:15;;;;;;;20.23;3.67;;;;;;;18.85;43.08;98691.72;5005022;28;20042;-70
2022/05/24 12:10:08;;;;;;;12.40;3.17;;;;;;;18.73;42.92;98706.25;4985548;28;20048;-68
2022/05/24 12:12:50;;;;;;;3.22;1.60;;;;;;;18.70;42.70;98707.41;4985783;28;20038;-67
2022/05/24 12:15:43;;;;;;;3.15;1.70;;;;;;;18.99;42.53;98717.88;4985591;28;20072;-69
2022/05/24 12:18:08;;;;;;;2.75;1.20;;;;;;;18.92;42.56;98716.81;4985284;28;20101;-66
2022/05/24 12:20:34;;;;;;;2.70;1.50;;;;;;;18.95;42.73;98726.34;4985022;28;20038;-68
2022/05/24 12:23:14;;;;;;;4.80;1.88;;;;;;;18.88;42.83;98723.47;4985329;28;20038;-67
2022/05/24 12:25:55;;;;;;;4.50;1.88;;;;;;;19.05;42.79;98719.06;4984576;28;20053;-68
2022/05/24 12:28:37;;;;;;;2.53;1.77;;;;;;;18.88;42.68;98726.13;4989697;28;20042;-65